createdAt,value
2022-08-03T00:01:49.499Z,3.22
2022-08-03T00:04:16.620Z,4.03
2022-08-03T00:06:43.671Z,2.85
2022-08-03T00:09:11.058Z,4.13
2022-08-03T00:11:38.639Z,4.22
2022-08-03T00:14:06.420Z,4.88
2022-08-03T00:16:33.064Z,3.40
2022-08-03T00:19:01.162Z,2.78
2022-08-03T00:21:28.503Z,2.13
2022-08-03T00:23:58.660Z,3.72
2022-08-03T00:26:28.258Z,2.22
2022-08-03T00:28:54.915Z,2.60
2022-08-03T00:31:29.678Z,4.15
2022-08-03T00:34:18.313Z,3.13
2022-08-03T00:37:04.114Z,3.70
2022-08-03T00:39:33.347Z,3.97
2022-08-03T00:42:06.308Z,2.22
2022-08-03T00:44:42.820Z,3.05
2022-08-03T00:47:11.294Z,3.50
2022-08-03T00:49:39.458Z,3.13
2022-08-03T00:52:12.793Z,2.80
2022-08-03T00:54:40.385Z,3.05
2022-08-03T00:57:07.808Z,3.33
2022-08-03T00:59:34.457Z,4.05
2022-08-03T01:02:01.071Z,2.40
2022-08-03T01:04:28.011Z,3.35
2022-08-03T01:07:03.873Z,4.03
2022-08-03T01:09:49.216Z,2.42
2022-08-03T01:12:34.983Z,3.45
2022-08-03T01:15:33.978Z,2.72
2022-08-03T01:18:10.058Z,5.60
2022-08-03T01:20:40.436Z,2.72
2022-08-03T01:23:17.612Z,2.30
2022-08-03T01:26:15.329Z,3.20
2022-08-03T01:29:03.684Z,2.72
2022-08-03T01:32:58.244Z,2.58
2022-08-03T01:34:31.558Z,2.25
2022-08-03T01:37:03.160Z,2.50
2022-08-03T01:39:32.913Z,4.50
2022-08-03T01:42:03.884Z,2.55
2022-08-03T01:44:33.799Z,3.83
2022-08-03T01:47:02.300Z,3.30
2022-08-03T01:49:32.335Z,3.90
2022-08-03T01:52:05.003Z,2.90
2022-08-03T01:54:41.910Z,3.22
2022-08-03T01:57:10.294Z,3.10
2022-08-03T01:59:38.604Z,2.78
2022-08-03T02:02:15.495Z,3.42
2022-08-03T02:04:56.817Z,2.50
2022-08-03T02:07:25.788Z,4.22
2022-08-03T02:09:54.290Z,2.53
2022-08-03T02:12:23.855Z,4.03
2022-08-03T02:14:51.402Z,2.58
2022-08-03T02:17:38.689Z,4.13
2022-08-03T02:20:08.446Z,2.55
2022-08-03T02:22:35.962Z,2.80
2022-08-03T02:25:02.707Z,2.72
2022-08-03T02:27:31.778Z,3.40
2022-08-03T02:30:02.748Z,3.42
2022-08-03T02:32:37.773Z,2.95
2022-08-03T02:35:08.503Z,2.80
2022-08-03T02:37:42.645Z,4.35
2022-08-03T02:40:12.995Z,4.97
2022-08-03T02:42:42.631Z,2.75
2022-08-03T02:45:11.917Z,3.28
2022-08-03T02:47:54.329Z,3.40
2022-08-03T02:50:23.461Z,2.70
2022-08-03T02:52:51.923Z,3.28
2022-08-03T02:55:20.268Z,2.90
2022-08-03T02:57:48.237Z,2.78
2022-08-03T03:00:19.500Z,3.30
2022-08-03T03:02:57.472Z,2.70
2022-08-03T03:05:53.716Z,2.42
2022-08-03T03:08:18.980Z,3.17
2022-08-03T03:10:55.730Z,2.55
2022-08-03T03:13:23.378Z,4.82
2022-08-03T03:15:52.013Z,3.47
2022-08-03T03:18:22.537Z,3.25
2022-08-03T03:20:52.511Z,3.08
2022-08-03T03:23:21.557Z,4.30
2022-08-03T03:25:49.224Z,2.78
2022-08-03T03:28:16.204Z,2.97
2022-08-03T03:30:43.203Z,2.72
2022-08-03T03:33:09.903Z,3.22
2022-08-03T03:35:38.797Z,2.63
2022-08-03T03:38:07.141Z,4.95
2022-08-03T03:40:35.822Z,2.90
2022-08-03T03:43:03.196Z,3.50
2022-08-03T03:45:31.082Z,2.95
2022-08-03T03:48:00.421Z,2.90
2022-08-03T03:50:28.139Z,2.70
2022-08-03T03:52:54.749Z,3.65
2022-08-03T03:55:21.409Z,4.03
2022-08-03T03:57:48.028Z,2.83
2022-08-03T04:00:16.566Z,2.78
2022-08-03T04:02:43.664Z,2.72
2022-08-03T04:05:10.472Z,3.08
2022-08-03T04:07:57.740Z,3.20
2022-08-03T04:10:31.538Z,2.92
2022-08-03T04:13:01.111Z,3.28
2022-08-03T04:15:29.076Z,2.75
2022-08-03T04:17:59.077Z,2.50
2022-08-03T04:20:29.715Z,3.00
2022-08-03T04:22:58.316Z,2.50
2022-08-03T04:25:28.013Z,2.30
2022-08-03T04:28:08.063Z,2.83
2022-08-03T04:30:47.221Z,2.95
2022-08-03T04:33:16.239Z,2.38
2022-08-03T04:36:01.087Z,2.40
2022-08-03T04:38:31.437Z,2.50
2022-08-03T04:40:59.849Z,2.35
2022-08-03T04:43:27.768Z,2.22
2022-08-03T04:45:56.548Z,2.65
2022-08-03T04:48:23.917Z,3.83
2022-08-03T04:50:50.919Z,2.60
2022-08-03T04:53:17.614Z,2.60
2022-08-03T04:55:44.428Z,3.72
2022-08-03T04:58:11.180Z,4.88
2022-08-03T05:00:38.024Z,2.65
2022-08-03T05:03:04.839Z,4.13
2022-08-03T05:05:50.568Z,5.53
2022-08-03T05:08:20.572Z,2.83
2022-08-03T05:10:59.048Z,4.68
2022-08-03T05:13:26.400Z,3.22
2022-08-03T05:15:52.985Z,3.83
2022-08-03T05:18:20.209Z,7.03
2022-08-03T05:20:47.014Z,2.90
2022-08-03T05:23:13.720Z,4.25
2022-08-03T05:25:40.543Z,3.72
2022-08-03T05:28:16.678Z,4.07
2022-08-03T05:30:43.445Z,3.15
2022-08-03T05:33:10.867Z,3.17
2022-08-03T05:36:01.413Z,3.83
2022-08-03T05:38:28.519Z,2.63
2022-08-03T05:41:23.302Z,2.63
2022-08-03T05:43:44.451Z,2.58
2022-08-03T05:46:12.275Z,4.18
2022-08-03T05:48:39.535Z,2.83
2022-08-03T05:51:06.178Z,2.80
2022-08-03T05:53:35.958Z,3.22
2022-08-03T05:56:14.147Z,3.03
2022-08-03T05:58:44.138Z,3.60
2022-08-03T06:01:10.845Z,3.63
2022-08-03T06:03:37.644Z,3.28
2022-08-03T06:06:04.526Z,2.33
2022-08-03T06:08:31.182Z,2.50
2022-08-03T06:10:57.876Z,2.40
2022-08-03T06:13:24.712Z,3.97
2022-08-03T06:15:51.305Z,2.22
2022-08-03T06:18:19.075Z,2.42
2022-08-03T06:21:14.253Z,2.70
2022-08-03T06:23:55.486Z,2.13
2022-08-03T06:26:26.984Z,3.53
2022-08-03T06:28:55.181Z,2.28
2022-08-03T06:31:24.183Z,2.10
2022-08-03T06:34:30.651Z,3.17
2022-08-03T06:36:37.849Z,2.45
2022-08-03T06:39:05.186Z,5.07
2022-08-03T06:41:38.054Z,1.77
2022-08-03T06:44:11.714Z,2.20
2022-08-03T06:46:39.603Z,2.28
2022-08-03T06:49:08.675Z,1.95
2022-08-03T06:52:04.186Z,1.80
2022-08-03T06:54:22.187Z,1.92
2022-08-03T06:56:48.935Z,1.73
2022-08-03T07:00:10.363Z,1.90
2022-08-03T07:02:02.438Z,2.78
2022-08-03T07:04:29.069Z,2.15
2022-08-03T07:06:56.066Z,4.30
2022-08-03T07:09:22.692Z,2.25
2022-08-03T07:11:49.352Z,3.45
2022-08-03T07:14:15.969Z,1.70
2022-08-03T07:16:42.751Z,3.08
2022-08-03T07:19:09.384Z,2.42
2022-08-03T07:21:36.043Z,2.70
2022-08-03T07:24:02.884Z,1.88
2022-08-03T07:26:29.654Z,1.98
2022-08-03T07:28:56.384Z,2.55
2022-08-03T07:31:23.368Z,1.55
2022-08-03T07:33:50.032Z,1.35
2022-08-03T07:36:16.947Z,2.13
2022-08-03T07:38:43.702Z,1.75
2022-08-03T07:41:10.473Z,2.08
2022-08-03T07:43:37.136Z,2.70
2022-08-03T07:46:04.080Z,1.60
2022-08-03T07:48:30.784Z,1.70
2022-08-03T07:50:57.593Z,2.83
2022-08-03T07:53:24.257Z,1.67
2022-08-03T07:55:51.028Z,2.35
2022-08-03T07:58:22.087Z,1.70
2022-08-03T08:00:51.034Z,2.95
2022-08-03T08:03:17.746Z,2.03
2022-08-03T08:05:44.775Z,1.80
2022-08-03T08:08:11.511Z,2.47
2022-08-03T08:10:38.358Z,2.85
2022-08-03T08:13:05.330Z,2.97
2022-08-03T08:15:32.779Z,2.78
2022-08-03T08:18:01.338Z,1.83
2022-08-03T08:20:32.200Z,1.50
2022-08-03T08:23:19.989Z,1.38
2022-08-03T08:25:52.814Z,1.83
2022-08-03T08:28:32.482Z,1.92
2022-08-03T08:31:01.262Z,3.10
2022-08-03T08:33:37.659Z,2.95
2022-08-03T08:36:15.539Z,1.77
2022-08-03T08:38:43.201Z,1.30
2022-08-03T08:41:11.078Z,1.48
2022-08-03T08:43:37.797Z,1.70
2022-08-03T08:46:06.188Z,1.30
2022-08-03T08:48:32.814Z,1.63
2022-08-03T08:51:00.797Z,1.50
2022-08-03T08:53:29.190Z,1.33
2022-08-03T08:56:00.965Z,1.33
2022-08-03T08:58:38.004Z,1.73
2022-08-03T09:01:05.882Z,1.45
2022-08-03T09:03:36.086Z,1.85
2022-08-03T09:06:03.872Z,3.80
2022-08-03T09:08:32.177Z,1.98
2022-08-03T09:10:59.485Z,1.20
2022-08-03T09:13:26.560Z,1.10
2022-08-03T09:16:12.249Z,1.55
2022-08-03T09:18:39.614Z,2.53
2022-08-03T09:21:36.275Z,1.45
2022-08-03T09:24:06.497Z,1.40
2022-08-03T09:26:37.996Z,1.50
2022-08-03T09:29:15.343Z,2.10
2022-08-03T09:31:45.073Z,1.25
2022-08-03T09:34:14.619Z,1.73
2022-08-03T09:36:44.070Z,2.75
2022-08-03T09:39:13.141Z,1.30
2022-08-03T09:41:45.276Z,1.50
2022-08-03T09:44:24.118Z,1.85
2022-08-03T09:46:55.988Z,1.40
2022-08-03T09:49:23.389Z,3.25
2022-08-03T09:52:32.367Z,1.20
2022-08-03T09:54:37.137Z,1.45
2022-08-03T09:57:04.154Z,1.70
2022-08-03T09:59:32.276Z,1.63
2022-08-03T10:02:00.611Z,1.90
2022-08-03T10:04:28.506Z,1.58
2022-08-03T10:07:03.664Z,2.35
2022-08-03T10:09:30.359Z,1.40
2022-08-03T10:11:57.434Z,1.05
2022-08-03T10:14:24.624Z,1.15
2022-08-03T10:16:51.215Z,1.77
2022-08-03T10:19:18.405Z,1.80
2022-08-03T10:21:53.676Z,1.55
2022-08-03T10:24:25.019Z,0.90
2022-08-03T10:26:53.472Z,1.52
2022-08-03T10:29:24.934Z,1.30
2022-08-03T10:31:58.205Z,1.85
2022-08-03T10:34:35.207Z,1.25
2022-08-03T10:37:08.048Z,2.80
2022-08-03T10:39:35.982Z,2.80
2022-08-03T10:42:05.599Z,1.88
2022-08-03T10:44:42.246Z,1.05
2022-08-03T10:47:10.646Z,1.20
2022-08-03T10:49:38.253Z,1.88
2022-08-03T10:52:13.793Z,1.45
2022-08-03T10:54:53.102Z,2.72
2022-08-03T10:57:46.475Z,2.17
2022-08-03T11:00:20.791Z,1.90
2022-08-03T11:03:02.634Z,1.00
2022-08-03T11:05:32.125Z,1.25
2022-08-03T11:08:18.402Z,1.90
2022-08-03T11:10:45.723Z,1.48
2022-08-03T11:13:16.875Z,1.25
2022-08-03T11:15:46.689Z,1.20
2022-08-03T11:18:14.671Z,1.52
2022-08-03T11:20:58.366Z,1.45
2022-08-03T11:24:04.285Z,1.30
2022-08-03T11:26:34.316Z,1.02
2022-08-03T11:29:33.284Z,1.20
2022-08-03T11:32:00.519Z,1.20
2022-08-03T11:34:27.142Z,4.13
2022-08-03T11:37:20.325Z,2.03
2022-08-03T11:39:51.851Z,1.25
2022-08-03T11:42:32.219Z,0.90
2022-08-03T11:45:01.193Z,1.67
2022-08-03T11:47:34.096Z,1.00
2022-08-03T11:50:07.788Z,1.05
2022-08-03T11:52:45.443Z,1.13
2022-08-03T11:55:22.001Z,0.98
2022-08-03T11:59:17.557Z,1.05
2022-08-03T12:00:36.342Z,1.92
2022-08-03T12:03:09.150Z,1.83
2022-08-03T12:05:51.344Z,1.58
2022-08-03T12:08:33.675Z,1.27
2022-08-03T12:11:02.637Z,3.38
2022-08-03T12:14:37.326Z,1.05
2022-08-03T12:16:32.731Z,1.38
2022-08-03T12:19:01.767Z,1.13
2022-08-03T12:21:29.460Z,1.20
2022-08-03T12:24:05.203Z,1.25
2022-08-03T12:26:58.926Z,1.30
2022-08-03T12:29:27.271Z,1.90
2022-08-03T12:31:53.835Z,2.10
2022-08-03T12:34:20.520Z,1.00
2022-08-03T12:36:55.833Z,1.00
2022-08-03T12:39:27.113Z,2.15
2022-08-03T12:41:59.266Z,1.27
2022-08-03T12:44:34.405Z,2.10
2022-08-03T12:47:02.750Z,1.67
2022-08-03T12:49:30.438Z,2.22
2022-08-03T12:52:01.723Z,1.95
2022-08-03T12:54:32.473Z,3.95
2022-08-03T12:57:10.342Z,1.85
2022-08-03T12:59:42.155Z,3.88
2022-08-03T13:02:26.380Z,1.20
2022-08-03T13:04:54.596Z,1.30
2022-08-03T13:07:22.783Z,1.10
2022-08-03T13:09:55.164Z,2.13
2022-08-03T13:12:24.251Z,2.25
2022-08-03T13:14:53.240Z,1.83
2022-08-03T13:17:20.390Z,2.25
2022-08-03T13:19:48.427Z,1.05
2022-08-03T13:22:15.000Z,1.25
2022-08-03T13:24:44.687Z,1.10
2022-08-03T13:28:01.233Z,2.92
2022-08-03T13:29:58.908Z,1.80
2022-08-03T13:32:25.740Z,1.00
2022-08-03T13:34:52.531Z,2.25
2022-08-03T13:37:19.127Z,1.40
2022-08-03T13:39:59.800Z,1.17
2022-08-03T13:42:35.167Z,1.15
2022-08-03T13:45:02.814Z,1.25
2022-08-03T13:47:29.632Z,1.27
2022-08-03T13:50:01.845Z,2.85
2022-08-03T13:52:31.363Z,1.98
2022-08-03T13:54:58.141Z,1.20
2022-08-03T13:58:04.794Z,1.70
2022-08-03T14:00:12.040Z,1.40
2022-08-03T14:02:38.736Z,0.88
2022-08-03T14:05:05.919Z,1.10
2022-08-03T14:07:32.565Z,1.55
2022-08-03T14:09:59.855Z,2.35
2022-08-03T14:12:26.641Z,1.10
2022-08-03T14:14:55.957Z,1.25
2022-08-03T14:17:24.819Z,1.05
2022-08-03T14:19:53.533Z,1.88
2022-08-03T14:22:21.527Z,1.00
2022-08-03T14:24:49.191Z,3.03
2022-08-03T14:27:16.919Z,1.40
2022-08-03T14:29:43.613Z,1.08
2022-08-03T14:32:13.203Z,1.00
2022-08-03T14:34:40.805Z,2.65
2022-08-03T14:37:07.993Z,3.85
2022-08-03T14:42:21.394Z,3.80
2022-08-03T14:44:48.048Z,5.45
2022-08-03T14:47:14.846Z,2.92
2022-08-03T14:50:37.525Z,2.47
2022-08-03T14:52:28.874Z,3.67
2022-08-03T14:54:55.590Z,1.52
2022-08-03T14:57:22.454Z,2.10
2022-08-03T14:59:56.771Z,1.40
2022-08-03T19:06:08.551Z,2.85
2022-08-03T19:09:06.275Z,3.60
2022-08-03T19:12:14.017Z,4.22
2022-08-03T19:14:49.407Z,3.03
2022-08-03T19:17:21.278Z,3.00
2022-08-03T19:19:53.494Z,3.42
2022-08-03T19:22:24.497Z,3.03
2022-08-03T19:25:01.449Z,2.55
2022-08-03T19:27:32.824Z,3.45
2022-08-03T19:30:14.116Z,3.22
2022-08-03T19:32:50.128Z,6.97
2022-08-03T19:35:18.903Z,2.90
2022-08-03T19:37:55.401Z,4.15
2022-08-03T19:40:27.710Z,4.95
2022-08-03T19:42:59.945Z,3.17
2022-08-03T19:46:06.080Z,3.38
2022-08-03T19:48:22.248Z,7.50
2022-08-03T19:50:52.741Z,13.50
2022-08-03T19:53:20.553Z,13.77
2022-08-03T19:55:53.657Z,10.10
2022-08-03T19:58:28.478Z,12.00
2022-08-03T20:00:56.056Z,6.07
2022-08-03T20:03:26.999Z,3.97
2022-08-03T20:06:10.740Z,4.40
2022-08-03T20:08:44.388Z,3.55
2022-08-03T20:11:11.530Z,6.50
2022-08-03T20:13:38.964Z,3.85
2022-08-03T20:16:26.038Z,6.40
2022-08-03T20:18:52.599Z,7.75
2022-08-03T20:21:21.684Z,8.13
2022-08-03T20:24:01.805Z,4.47
2022-08-03T20:26:31.611Z,12.30
2022-08-03T20:29:09.161Z,9.10
2022-08-03T20:31:37.221Z,6.05
2022-08-03T20:34:05.167Z,5.55
2022-08-03T20:36:31.964Z,4.40
2022-08-03T20:38:59.084Z,6.03
2022-08-03T20:41:26.441Z,4.60
2022-08-03T20:43:53.310Z,9.00
2022-08-03T20:46:32.105Z,8.00
2022-08-03T20:49:05.993Z,6.95
2022-08-03T20:51:50.140Z,6.75
2022-08-03T20:57:09.523Z,13.77
2022-08-03T20:59:50.876Z,14.68
2022-08-03T21:02:29.545Z,12.23
2022-08-03T21:05:03.492Z,17.40
2022-08-03T21:08:04.988Z,12.27
2022-08-03T21:10:41.952Z,10.52
2022-08-03T21:13:14.055Z,12.23
2022-08-03T21:13:38.896Z,13.57
2022-08-03T21:16:14.128Z,9.82
2022-08-03T21:18:49.995Z,9.38
2022-08-03T21:21:19.711Z,4.07
2022-08-03T21:23:53.900Z,3.55
2022-08-03T21:26:27.912Z,3.97
2022-08-03T21:28:56.040Z,3.95
2022-08-03T21:31:26.240Z,4.05
2022-08-03T21:34:04.619Z,4.10
2022-08-03T21:36:37.124Z,3.50
2022-08-03T21:39:08.145Z,5.93
2022-08-03T21:41:37.024Z,3.65
2022-08-03T21:44:06.889Z,2.53
2022-08-03T21:46:38.078Z,5.07
2022-08-03T21:50:05.363Z,3.63
2022-08-03T21:51:58.430Z,4.00
2022-08-03T21:54:32.449Z,2.75
2022-08-03T21:57:04.332Z,3.28
2022-08-03T21:59:35.957Z,5.43
2022-08-03T22:02:02.930Z,3.15
2022-08-03T22:04:55.161Z,3.30
2022-08-03T22:07:22.804Z,4.28
2022-08-03T22:09:51.518Z,3.33
2022-08-03T22:12:23.530Z,3.63
2022-08-03T22:15:01.328Z,3.00
2022-08-03T22:17:54.709Z,4.53
2022-08-03T22:20:17.582Z,2.70
2022-08-03T22:22:55.366Z,4.13
2022-08-03T22:25:31.928Z,3.55
2022-08-03T22:28:08.633Z,2.97
2022-08-03T22:30:36.151Z,3.80
2022-08-03T22:33:05.460Z,3.08
2022-08-03T22:35:47.344Z,4.07
2022-08-03T22:38:17.103Z,3.20
2022-08-03T22:40:47.139Z,3.35
2022-08-03T22:43:14.197Z,5.60
2022-08-03T22:46:07.126Z,2.88
2022-08-03T22:48:33.982Z,2.58
2022-08-03T22:51:02.732Z,4.10
2022-08-03T22:53:29.742Z,3.08
2022-08-03T22:55:56.915Z,2.50
2022-08-03T22:58:23.717Z,2.58
2022-08-03T23:00:57.454Z,3.17
2022-08-03T23:04:01.281Z,4.90
2022-08-03T23:06:19.820Z,2.72
2022-08-03T23:08:48.399Z,3.03
2022-08-03T23:11:18.445Z,2.53
2022-08-03T23:13:47.076Z,3.63
2022-08-03T23:16:16.098Z,2.75
2022-08-03T23:18:56.505Z,5.15
2022-08-03T23:21:59.844Z,2.50
2022-08-03T23:24:28.467Z,2.70
2022-08-03T23:26:57.015Z,3.00
2022-08-03T23:29:23.850Z,3.03
2022-08-03T23:31:53.641Z,4.80
2022-08-03T23:34:21.707Z,2.60
2022-08-03T23:36:49.301Z,3.30
2022-08-03T23:39:19.404Z,2.72
2022-08-03T23:41:48.375Z,2.85
2022-08-03T23:44:17.161Z,2.60
2022-08-03T23:46:45.584Z,5.18
2022-08-03T23:49:12.117Z,2.80
2022-08-03T23:52:02.989Z,3.75
2022-08-03T23:55:11.333Z,2.58
2022-08-03T23:57:40.948Z,3.95
